sensor_id;sensor_type;location;lat;lon;timestamp;P1;durP1;ratioP1;P2;durP2;ratioP2
49688;SDS011;70518;51.400;7.428;2023-06-10T00:00:38;5.30;;;4.18;;
49688;SDS011;70518;51.400;7.428;2023-06-10T00:03:06;6.95;;;4.65;;
49688;SDS011;70518;51.400;7.428;2023-06-10T00:05:31;5.10;;;4.60;;
49688;SDS011;70518;51.400;7.428;2023-06-10T00:07:56;5.32;;;4.82;;
49688;SDS011;70518;51.400;7.428;2023-06-10T00:10:23;6.47;;;4.80;;
49688;SDS011;70518;51.400;7.428;2023-06-10T00:12:49;5.47;;;4.72;;
49688;SDS011;70518;51.400;7.428;2023-06-10T00:15:16;6.43;;;5.05;;
49688;SDS011;70518;51.400;7.428;2023-06-10T00:17:42;6.43;;;5.38;;
49688;SDS011;70518;51.400;7.428;2023-06-10T00:20:08;9.02;;;5.60;;
49688;SDS011;70518;51.400;7.428;2023-06-10T00:22:36;7.00;;;5.80;;
49688;SDS011;70518;51.400;7.428;2023-06-10T00:25:02;7.18;;;5.90;;
49688;SDS011;70518;51.400;7.428;2023-06-10T00:27:28;5.20;;;4.80;;
49688;SDS011;70518;51.400;7.428;2023-06-10T00:29:59;6.15;;;5.55;;
49688;SDS011;70518;51.400;7.428;2023-06-10T00:32:25;9.45;;;5.55;;
49688;SDS011;70518;51.400;7.428;2023-06-10T00:34:51;6.70;;;5.20;;
49688;SDS011;70518;51.400;7.428;2023-06-10T00:37:16;6.15;;;5.55;;
49688;SDS011;70518;51.400;7.428;2023-06-10T00:39:41;5.93;;;5.22;;
49688;SDS011;70518;51.400;7.428;2023-06-10T00:42:07;6.63;;;5.80;;
49688;SDS011;70518;51.400;7.428;2023-06-10T00:44:32;5.43;;;5.00;;
49688;SDS011;70518;51.400;7.428;2023-06-10T00:46:58;6.78;;;5.43;;
49688;SDS011;70518;51.400;7.428;2023-06-10T00:49:23;8.05;;;5.88;;
49688;SDS011;70518;51.400;7.428;2023-06-10T00:51:50;6.50;;;5.82;;
49688;SDS011;70518;51.400;7.428;2023-06-10T00:54:16;7.38;;;5.97;;
49688;SDS011;70518;51.400;7.428;2023-06-10T00:56:45;7.00;;;5.53;;
49688;SDS011;70518;51.400;7.428;2023-06-10T00:59:12;10.60;;;6.72;;
49688;SDS011;70518;51.400;7.428;2023-06-10T01:01:39;7.18;;;5.93;;
49688;SDS011;70518;51.400;7.428;2023-06-10T01:04:04;7.00;;;5.85;;
49688;SDS011;70518;51.400;7.428;2023-06-10T01:14:38;7.45;;;6.60;;
49688;SDS011;70518;51.400;7.428;2023-06-10T01:17:09;8.77;;;6.75;;
49688;SDS011;70518;51.400;7.428;2023-06-10T01:19:35;7.22;;;6.50;;
49688;SDS011;70518;51.400;7.428;2023-06-10T01:22:01;7.13;;;6.43;;
49688;SDS011;70518;51.400;7.428;2023-06-10T01:24:27;8.20;;;6.28;;
49688;SDS011;70518;51.400;7.428;2023-06-10T01:26:53;9.20;;;6.22;;
49688;SDS011;70518;51.400;7.428;2023-06-10T01:29:36;6.78;;;5.93;;
49688;SDS011;70518;51.400;7.428;2023-06-10T01:35:09;8.55;;;6.35;;
49688;SDS011;70518;51.400;7.428;2023-06-10T01:37:35;6.28;;;5.60;;
49688;SDS011;70518;51.400;7.428;2023-06-10T01:40:03;7.43;;;6.47;;
49688;SDS011;70518;51.400;7.428;2023-06-10T01:42:31;7.88;;;5.90;;
49688;SDS011;70518;51.400;7.428;2023-06-10T01:44:57;6.78;;;6.18;;
49688;SDS011;70518;51.400;7.428;2023-06-10T01:47:23;11.00;;;6.97;;
49688;SDS011;70518;51.400;7.428;2023-06-10T01:49:48;6.50;;;5.97;;
49688;SDS011;70518;51.400;7.428;2023-06-10T01:52:14;7.85;;;7.00;;
49688;SDS011;70518;51.400;7.428;2023-06-10T01:54:39;8.23;;;7.07;;
49688;SDS011;70518;51.400;7.428;2023-06-10T01:57:04;8.10;;;6.60;;
49688;SDS011;70518;51.400;7.428;2023-06-10T01:59:31;7.25;;;6.55;;
49688;SDS011;70518;51.400;7.428;2023-06-10T02:01:56;7.80;;;7.00;;
49688;SDS011;70518;51.400;7.428;2023-06-10T02:04:21;6.80;;;6.10;;
49688;SDS011;70518;51.400;7.428;2023-06-10T02:06:47;8.07;;;7.22;;
49688;SDS011;70518;51.400;7.428;2023-06-10T02:09:13;10.65;;;7.70;;
49688;SDS011;70518;51.400;7.428;2023-06-10T02:11:38;7.65;;;6.95;;
49688;SDS011;70518;51.400;7.428;2023-06-10T02:14:04;8.40;;;7.45;;
49688;SDS011;70518;51.400;7.428;2023-06-10T02:16:30;7.53;;;6.78;;
49688;SDS011;70518;51.400;7.428;2023-06-10T02:18:56;8.75;;;7.45;;
49688;SDS011;70518;51.400;7.428;2023-06-10T02:21:21;8.18;;;7.35;;
49688;SDS011;70518;51.400;7.428;2023-06-10T02:23:46;8.90;;;7.45;;
49688;SDS011;70518;51.400;7.428;2023-06-10T02:26:12;8.07;;;7.07;;
49688;SDS011;70518;51.400;7.428;2023-06-10T02:28:37;9.30;;;8.02;;
49688;SDS011;70518;51.400;7.428;2023-06-10T02:31:02;9.13;;;7.18;;
49688;SDS011;70518;51.400;7.428;2023-06-10T02:33:28;14.25;;;8.10;;
49688;SDS011;70518;51.400;7.428;2023-06-10T02:35:53;8.63;;;7.78;;
49688;SDS011;70518;51.400;7.428;2023-06-10T02:38:18;10.82;;;8.13;;
49688;SDS011;70518;51.400;7.428;2023-06-10T02:40:44;7.50;;;6.80;;
49688;SDS011;70518;51.400;7.428;2023-06-10T02:43:09;9.63;;;6.97;;
49688;SDS011;70518;51.400;7.428;2023-06-10T02:45:35;8.63;;;7.55;;
49688;SDS011;70518;51.400;7.428;2023-06-10T02:48:00;9.60;;;7.07;;
49688;SDS011;70518;51.400;7.428;2023-06-10T02:50:25;7.88;;;7.18;;
49688;SDS011;70518;51.400;7.428;2023-06-10T02:52:50;7.93;;;7.15;;
49688;SDS011;70518;51.400;7.428;2023-06-10T02:55:16;8.57;;;6.97;;
49688;SDS011;70518;51.400;7.428;2023-06-10T02:57:41;9.43;;;7.10;;
49688;SDS011;70518;51.400;7.428;2023-06-10T03:00:07;8.07;;;7.28;;
49688;SDS011;70518;51.400;7.428;2023-06-10T03:02:35;7.28;;;6.57;;
49688;SDS011;70518;51.400;7.428;2023-06-10T03:05:03;7.03;;;6.32;;
49688;SDS011;70518;51.400;7.428;2023-06-10T03:07:30;7.55;;;6.80;;
49688;SDS011;70518;51.400;7.428;2023-06-10T03:09:55;7.63;;;6.80;;
49688;SDS011;70518;51.400;7.428;2023-06-10T03:12:21;7.85;;;6.35;;
49688;SDS011;70518;51.400;7.428;2023-06-10T03:14:46;8.15;;;7.40;;
49688;SDS011;70518;51.400;7.428;2023-06-10T03:17:11;7.68;;;6.97;;
49688;SDS011;70518;51.400;7.428;2023-06-10T03:19:37;9.00;;;8.07;;
49688;SDS011;70518;51.400;7.428;2023-06-10T03:22:08;10.85;;;8.75;;
49688;SDS011;70518;51.400;7.428;2023-06-10T03:24:35;8.50;;;7.80;;
49688;SDS011;70518;51.400;7.428;2023-06-10T03:27:01;9.93;;;7.93;;
49688;SDS011;70518;51.400;7.428;2023-06-10T03:29:27;8.73;;;7.93;;
49688;SDS011;70518;51.400;7.428;2023-06-10T03:31:52;8.77;;;7.68;;
49688;SDS011;70518;51.400;7.428;2023-06-10T03:34:17;8.88;;;7.68;;
49688;SDS011;70518;51.400;7.428;2023-06-10T03:36:42;8.60;;;7.68;;
49688;SDS011;70518;51.400;7.428;2023-06-10T03:39:08;9.13;;;7.95;;
49688;SDS011;70518;51.400;7.428;2023-06-10T03:41:34;9.13;;;8.23;;
49688;SDS011;70518;51.400;7.428;2023-06-10T03:43:59;11.10;;;9.13;;
49688;SDS011;70518;51.400;7.428;2023-06-10T03:46:25;10.77;;;8.68;;
49688;SDS011;70518;51.400;7.428;2023-06-10T03:48:50;10.68;;;8.68;;
49688;SDS011;70518;51.400;7.428;2023-06-10T03:51:16;10.23;;;9.23;;
49688;SDS011;70518;51.400;7.428;2023-06-10T03:53:41;10.93;;;9.00;;
49688;SDS011;70518;51.400;7.428;2023-06-10T03:56:06;9.90;;;8.90;;
49688;SDS011;70518;51.400;7.428;2023-06-10T03:58:32;9.27;;;8.38;;
49688;SDS011;70518;51.400;7.428;2023-06-10T04:00:57;10.20;;;9.20;;
49688;SDS011;70518;51.400;7.428;2023-06-10T04:03:22;9.75;;;8.70;;
49688;SDS011;70518;51.400;7.428;2023-06-10T04:05:48;10.30;;;8.98;;
49688;SDS011;70518;51.400;7.428;2023-06-10T04:08:15;9.82;;;8.93;;
49688;SDS011;70518;51.400;7.428;2023-06-10T04:10:40;9.07;;;8.25;;
49688;SDS011;70518;51.400;7.428;2023-06-10T04:13:05;8.93;;;7.60;;
49688;SDS011;70518;51.400;7.428;2023-06-10T04:15:31;9.30;;;8.35;;
49688;SDS011;70518;51.400;7.428;2023-06-10T04:17:58;9.38;;;7.82;;
49688;SDS011;70518;51.400;7.428;2023-06-10T04:20:23;7.85;;;7.15;;
49688;SDS011;70518;51.400;7.428;2023-06-10T04:22:48;9.18;;;8.15;;
49688;SDS011;70518;51.400;7.428;2023-06-10T04:25:13;9.73;;;8.45;;
49688;SDS011;70518;51.400;7.428;2023-06-10T04:27:39;10.05;;;9.02;;
49688;SDS011;70518;51.400;7.428;2023-06-10T04:30:04;10.48;;;9.48;;
49688;SDS011;70518;51.400;7.428;2023-06-10T04:32:30;12.15;;;9.65;;
49688;SDS011;70518;51.400;7.428;2023-06-10T04:34:55;12.27;;;9.80;;
49688;SDS011;70518;51.400;7.428;2023-06-10T04:37:21;11.73;;;10.45;;
49688;SDS011;70518;51.400;7.428;2023-06-10T04:39:46;11.23;;;10.05;;
49688;SDS011;70518;51.400;7.428;2023-06-10T04:42:12;11.57;;;10.38;;
49688;SDS011;70518;51.400;7.428;2023-06-10T04:44:37;12.88;;;10.38;;
49688;SDS011;70518;51.400;7.428;2023-06-10T04:47:03;12.40;;;10.65;;
49688;SDS011;70518;51.400;7.428;2023-06-10T04:49:29;12.38;;;11.07;;
49688;SDS011;70518;51.400;7.428;2023-06-10T04:51:54;12.50;;;10.30;;
49688;SDS011;70518;51.400;7.428;2023-06-10T04:54:20;11.85;;;10.25;;
49688;SDS011;70518;51.400;7.428;2023-06-10T04:56:45;10.48;;;9.45;;
49688;SDS011;70518;51.400;7.428;2023-06-10T04:59:11;10.90;;;9.82;;
49688;SDS011;70518;51.400;7.428;2023-06-10T05:01:37;12.07;;;10.77;;
49688;SDS011;70518;51.400;7.428;2023-06-10T05:04:02;11.77;;;10.00;;
49688;SDS011;70518;51.400;7.428;2023-06-10T05:06:27;13.10;;;10.55;;
49688;SDS011;70518;51.400;7.428;2023-06-10T05:08:53;13.52;;;10.93;;
49688;SDS011;70518;51.400;7.428;2023-06-10T05:11:18;10.98;;;9.88;;
49688;SDS011;70518;51.400;7.428;2023-06-10T05:13:43;12.82;;;10.32;;
49688;SDS011;70518;51.400;7.428;2023-06-10T05:16:09;12.93;;;10.48;;
49688;SDS011;70518;51.400;7.428;2023-06-10T05:18:34;12.45;;;9.73;;
49688;SDS011;70518;51.400;7.428;2023-06-10T05:21:00;10.75;;;9.48;;
49688;SDS011;70518;51.400;7.428;2023-06-10T05:23:26;11.88;;;10.02;;
49688;SDS011;70518;51.400;7.428;2023-06-10T05:25:51;11.30;;;9.77;;
49688;SDS011;70518;51.400;7.428;2023-06-10T05:28:16;11.02;;;9.10;;
49688;SDS011;70518;51.400;7.428;2023-06-10T05:30:42;11.52;;;9.52;;
49688;SDS011;70518;51.400;7.428;2023-06-10T05:33:07;12.48;;;9.43;;
49688;SDS011;70518;51.400;7.428;2023-06-10T05:35:32;10.52;;;9.27;;
49688;SDS011;70518;51.400;7.428;2023-06-10T05:37:58;9.50;;;8.48;;
49688;SDS011;70518;51.400;7.428;2023-06-10T05:40:23;12.70;;;9.07;;
49688;SDS011;70518;51.400;7.428;2023-06-10T05:42:48;10.18;;;7.50;;
49688;SDS011;70518;51.400;7.428;2023-06-10T05:45:14;12.45;;;7.65;;
49688;SDS011;70518;51.400;7.428;2023-06-10T05:47:39;7.93;;;6.03;;
49688;SDS011;70518;51.400;7.428;2023-06-10T05:50:05;7.05;;;6.35;;
49688;SDS011;70518;51.400;7.428;2023-06-10T05:52:32;6.88;;;6.18;;
49688;SDS011;70518;51.400;7.428;2023-06-10T05:54:58;9.05;;;5.85;;
49688;SDS011;70518;51.400;7.428;2023-06-10T05:57:24;6.60;;;5.80;;
49688;SDS011;70518;51.400;7.428;2023-06-10T05:59:49;6.20;;;5.57;;
49688;SDS011;70518;51.400;7.428;2023-06-10T06:02:15;8.95;;;6.40;;
49688;SDS011;70518;51.400;7.428;2023-06-10T06:04:40;6.57;;;5.57;;
49688;SDS011;70518;51.400;7.428;2023-06-10T06:07:05;6.30;;;5.70;;
49688;SDS011;70518;51.400;7.428;2023-06-10T06:09:31;6.82;;;4.88;;
49688;SDS011;70518;51.400;7.428;2023-06-10T06:11:56;6.40;;;4.88;;
49688;SDS011;70518;51.400;7.428;2023-06-10T06:14:21;5.72;;;4.60;;
49688;SDS011;70518;51.400;7.428;2023-06-10T06:16:46;9.30;;;5.13;;
49688;SDS011;70518;51.400;7.428;2023-06-10T06:19:12;4.70;;;4.20;;
49688;SDS011;70518;51.400;7.428;2023-06-10T06:21:37;5.22;;;4.70;;
49688;SDS011;70518;51.400;7.428;2023-06-10T06:24:03;7.50;;;4.72;;
49688;SDS011;70518;51.400;7.428;2023-06-10T06:26:28;5.97;;;4.85;;
49688;SDS011;70518;51.400;7.428;2023-06-10T06:28:53;6.68;;;4.00;;
49688;SDS011;70518;51.400;7.428;2023-06-10T06:31:18;8.70;;;4.65;;
49688;SDS011;70518;51.400;7.428;2023-06-10T06:33:44;7.05;;;4.18;;
49688;SDS011;70518;51.400;7.428;2023-06-10T06:36:09;5.28;;;4.53;;
49688;SDS011;70518;51.400;7.428;2023-06-10T06:38:35;5.28;;;3.88;;
49688;SDS011;70518;51.400;7.428;2023-06-10T06:41:00;5.40;;;4.20;;
49688;SDS011;70518;51.400;7.428;2023-06-10T06:43:28;6.75;;;4.47;;
49688;SDS011;70518;51.400;7.428;2023-06-10T06:45:54;5.05;;;4.38;;
49688;SDS011;70518;51.400;7.428;2023-06-10T06:48:20;4.45;;;4.05;;
49688;SDS011;70518;51.400;7.428;2023-06-10T06:50:45;5.93;;;3.60;;
49688;SDS011;70518;51.400;7.428;2023-06-10T06:53:11;5.63;;;4.63;;
49688;SDS011;70518;51.400;7.428;2023-06-10T06:55:37;5.28;;;3.72;;
49688;SDS011;70518;51.400;7.428;2023-06-10T06:58:02;5.13;;;4.28;;
49688;SDS011;70518;51.400;7.428;2023-06-10T07:00:28;5.55;;;4.30;;
49688;SDS011;70518;51.400;7.428;2023-06-10T07:02:54;8.57;;;4.07;;
49688;SDS011;70518;51.400;7.428;2023-06-10T07:05:20;5.18;;;4.25;;
49688;SDS011;70518;51.400;7.428;2023-06-10T07:07:45;6.20;;;3.97;;
49688;SDS011;70518;51.400;7.428;2023-06-10T07:10:10;4.85;;;3.45;;
49688;SDS011;70518;51.400;7.428;2023-06-10T07:12:36;6.13;;;4.15;;
49688;SDS011;70518;51.400;7.428;2023-06-10T07:15:01;4.72;;;3.53;;
49688;SDS011;70518;51.400;7.428;2023-06-10T07:17:27;5.68;;;4.00;;
49688;SDS011;70518;51.400;7.428;2023-06-10T07:19:52;5.85;;;3.40;;
49688;SDS011;70518;51.400;7.428;2023-06-10T07:22:17;4.57;;;3.72;;
49688;SDS011;70518;51.400;7.428;2023-06-10T07:24:43;4.50;;;3.65;;
49688;SDS011;70518;51.400;7.428;2023-06-10T07:27:08;6.65;;;3.22;;
49688;SDS011;70518;51.400;7.428;2023-06-10T07:29:33;5.15;;;3.95;;
49688;SDS011;70518;51.400;7.428;2023-06-10T07:32:00;5.43;;;3.22;;
49688;SDS011;70518;51.400;7.428;2023-06-10T07:34:26;5.72;;;3.25;;
49688;SDS011;70518;51.400;7.428;2023-06-10T07:36:51;3.38;;;2.65;;
49688;SDS011;70518;51.400;7.428;2023-06-10T07:39:17;4.18;;;2.92;;
49688;SDS011;70518;51.400;7.428;2023-06-10T07:41:42;6.40;;;3.22;;
49688;SDS011;70518;51.400;7.428;2023-06-10T07:44:07;5.28;;;3.13;;
49688;SDS011;70518;51.400;7.428;2023-06-10T07:46:32;5.05;;;3.03;;
49688;SDS011;70518;51.400;7.428;2023-06-10T07:48:58;3.17;;;2.80;;
49688;SDS011;70518;51.400;7.428;2023-06-10T07:51:23;5.18;;;3.35;;
49688;SDS011;70518;51.400;7.428;2023-06-10T07:53:48;5.60;;;3.83;;
49688;SDS011;70518;51.400;7.428;2023-06-10T07:56:14;3.63;;;3.30;;
49688;SDS011;70518;51.400;7.428;2023-06-10T07:58:39;4.85;;;3.50;;
49688;SDS011;70518;51.400;7.428;2023-06-10T08:01:04;5.55;;;2.90;;
49688;SDS011;70518;51.400;7.428;2023-06-10T08:03:30;8.98;;;3.05;;
49688;SDS011;70518;51.400;7.428;2023-06-10T08:05:55;6.25;;;3.35;;
49688;SDS011;70518;51.400;7.428;2023-06-10T08:08:20;5.45;;;3.38;;
49688;SDS011;70518;51.400;7.428;2023-06-10T08:10:45;5.25;;;3.38;;
49688;SDS011;70518;51.400;7.428;2023-06-10T08:13:11;6.18;;;2.75;;
49688;SDS011;70518;51.400;7.428;2023-06-10T08:15:36;6.15;;;3.22;;
49688;SDS011;70518;51.400;7.428;2023-06-10T08:18:02;4.43;;;3.78;;
49688;SDS011;70518;51.400;7.428;2023-06-10T08:20:27;6.43;;;3.38;;
49688;SDS011;70518;51.400;7.428;2023-06-10T08:22:52;7.03;;;3.70;;
49688;SDS011;70518;51.400;7.428;2023-06-10T08:25:17;6.10;;;3.25;;
49688;SDS011;70518;51.400;7.428;2023-06-10T08:27:43;4.75;;;3.08;;
49688;SDS011;70518;51.400;7.428;2023-06-10T08:30:08;6.20;;;3.03;;
49688;SDS011;70518;51.400;7.428;2023-06-10T08:32:35;4.80;;;2.85;;
49688;SDS011;70518;51.400;7.428;2023-06-10T08:35:01;4.90;;;3.25;;
49688;SDS011;70518;51.400;7.428;2023-06-10T08:37:26;5.78;;;3.30;;
49688;SDS011;70518;51.400;7.428;2023-06-10T08:39:52;4.30;;;3.08;;
49688;SDS011;70518;51.400;7.428;2023-06-10T08:44:46;5.03;;;3.00;;
49688;SDS011;70518;51.400;7.428;2023-06-10T08:47:15;4.32;;;2.58;;
49688;SDS011;70518;51.400;7.428;2023-06-10T08:49:45;5.63;;;2.67;;
49688;SDS011;70518;51.400;7.428;2023-06-10T08:52:18;4.95;;;2.85;;
49688;SDS011;70518;51.400;7.428;2023-06-10T08:54:57;4.78;;;3.03;;
49688;SDS011;70518;51.400;7.428;2023-06-10T08:57:25;3.38;;;2.47;;
49688;SDS011;70518;51.400;7.428;2023-06-10T08:59:52;5.60;;;2.83;;
49688;SDS011;70518;51.400;7.428;2023-06-10T09:02:18;4.90;;;3.05;;
49688;SDS011;70518;51.400;7.428;2023-06-10T09:04:46;6.32;;;3.40;;
49688;SDS011;70518;51.400;7.428;2023-06-10T09:07:11;4.63;;;2.95;;
49688;SDS011;70518;51.400;7.428;2023-06-10T09:09:39;5.97;;;2.60;;
49688;SDS011;70518;51.400;7.428;2023-06-10T09:12:06;5.50;;;2.85;;
49688;SDS011;70518;51.400;7.428;2023-06-10T09:14:32;5.47;;;3.30;;
49688;SDS011;70518;51.400;7.428;2023-06-10T09:16:57;5.28;;;3.00;;
49688;SDS011;70518;51.400;7.428;2023-06-10T09:19:23;4.30;;;3.25;;
49688;SDS011;70518;51.400;7.428;2023-06-10T09:21:50;4.70;;;2.72;;
49688;SDS011;70518;51.400;7.428;2023-06-10T09:24:16;5.05;;;3.25;;
49688;SDS011;70518;51.400;7.428;2023-06-10T09:26:42;4.38;;;3.05;;
49688;SDS011;70518;51.400;7.428;2023-06-10T09:29:08;5.28;;;3.05;;
49688;SDS011;70518;51.400;7.428;2023-06-10T09:31:35;4.85;;;3.17;;
49688;SDS011;70518;51.400;7.428;2023-06-10T09:34:05;5.60;;;3.08;;
49688;SDS011;70518;51.400;7.428;2023-06-10T09:36:35;5.43;;;3.15;;
49688;SDS011;70518;51.400;7.428;2023-06-10T09:39:01;3.53;;;3.22;;
49688;SDS011;70518;51.400;7.428;2023-06-10T09:41:39;6.65;;;3.50;;
49688;SDS011;70518;51.400;7.428;2023-06-10T09:44:09;5.25;;;3.25;;
49688;SDS011;70518;51.400;7.428;2023-06-10T09:46:37;5.97;;;3.38;;
49688;SDS011;70518;51.400;7.428;2023-06-10T09:49:02;3.38;;;3.08;;
49688;SDS011;70518;51.400;7.428;2023-06-10T09:51:27;4.93;;;2.97;;
49688;SDS011;70518;51.400;7.428;2023-06-10T09:53:53;4.43;;;3.00;;
49688;SDS011;70518;51.400;7.428;2023-06-10T09:56:18;4.70;;;3.13;;
49688;SDS011;70518;51.400;7.428;2023-06-10T09:58:44;5.60;;;2.78;;
49688;SDS011;70518;51.400;7.428;2023-06-10T10:01:11;5.95;;;3.05;;
49688;SDS011;70518;51.400;7.428;2023-06-10T10:06:11;4.00;;;2.83;;
49688;SDS011;70518;51.400;7.428;2023-06-10T10:08:36;3.63;;;2.97;;
49688;SDS011;70518;51.400;7.428;2023-06-10T10:11:02;3.83;;;2.95;;
49688;SDS011;70518;51.400;7.428;2023-06-10T10:13:28;5.85;;;3.30;;
49688;SDS011;70518;51.400;7.428;2023-06-10T10:15:57;4.13;;;2.67;;
49688;SDS011;70518;51.400;7.428;2023-06-10T10:18:26;5.77;;;3.27;;
49688;SDS011;70518;51.400;7.428;2023-06-10T10:20:55;5.68;;;3.13;;
49688;SDS011;70518;51.400;7.428;2023-06-10T10:23:24;3.78;;;3.22;;
49688;SDS011;70518;51.400;7.428;2023-06-10T10:25:56;4.70;;;2.58;;
49688;SDS011;70518;51.400;7.428;2023-06-10T10:28:25;3.90;;;2.63;;
49688;SDS011;70518;51.400;7.428;2023-06-10T10:30:59;4.60;;;3.13;;
49688;SDS011;70518;51.400;7.428;2023-06-10T10:36:22;4.63;;;2.70;;
49688;SDS011;70518;51.400;7.428;2023-06-10T10:38:48;4.32;;;2.90;;
49688;SDS011;70518;51.400;7.428;2023-06-10T10:41:16;4.15;;;2.90;;
49688;SDS011;70518;51.400;7.428;2023-06-10T10:43:43;3.88;;;3.03;;
49688;SDS011;70518;51.400;7.428;2023-06-10T10:46:13;4.75;;;3.08;;
49688;SDS011;70518;51.400;7.428;2023-06-10T10:51:06;4.70;;;2.53;;
49688;SDS011;70518;51.400;7.428;2023-06-10T10:53:32;3.30;;;3.00;;
49688;SDS011;70518;51.400;7.428;2023-06-10T10:58:32;5.15;;;2.80;;
49688;SDS011;70518;51.400;7.428;2023-06-10T11:00:58;4.90;;;3.03;;
49688;SDS011;70518;51.400;7.428;2023-06-10T11:03:27;4.43;;;3.00;;
49688;SDS011;70518;51.400;7.428;2023-06-10T11:05:53;5.50;;;2.67;;
49688;SDS011;70518;51.400;7.428;2023-06-10T11:10:56;5.30;;;2.78;;
49688;SDS011;70518;51.400;7.428;2023-06-10T11:13:21;3.22;;;2.60;;
49688;SDS011;70518;51.400;7.428;2023-06-10T11:15:48;3.38;;;2.85;;
49688;SDS011;70518;51.400;7.428;2023-06-10T11:18:23;4.45;;;3.13;;
49688;SDS011;70518;51.400;7.428;2023-06-10T11:21:02;3.72;;;2.92;;
49688;SDS011;70518;51.400;7.428;2023-06-10T11:29:06;4.65;;;3.05;;
49688;SDS011;70518;51.400;7.428;2023-06-10T11:31:40;7.15;;;3.30;;
49688;SDS011;70518;51.400;7.428;2023-06-10T11:34:07;2.75;;;2.55;;
49688;SDS011;70518;51.400;7.428;2023-06-10T11:36:34;4.38;;;3.10;;
49688;SDS011;70518;51.400;7.428;2023-06-10T11:39:03;4.55;;;3.08;;
49688;SDS011;70518;51.400;7.428;2023-06-10T11:41:31;3.33;;;2.58;;
49688;SDS011;70518;51.400;7.428;2023-06-10T11:44:04;2.95;;;2.75;;
49688;SDS011;70518;51.400;7.428;2023-06-10T11:46:32;4.60;;;3.10;;
49688;SDS011;70518;51.400;7.428;2023-06-10T11:48:58;6.65;;;2.88;;
49688;SDS011;70518;51.400;7.428;2023-06-10T11:51:25;4.78;;;2.95;;
49688;SDS011;70518;51.400;7.428;2023-06-10T11:53:52;4.68;;;3.05;;
49688;SDS011;70518;51.400;7.428;2023-06-10T11:58:51;3.65;;;2.50;;
49688;SDS011;70518;51.400;7.428;2023-06-10T12:01:22;6.28;;;2.70;;
49688;SDS011;70518;51.400;7.428;2023-06-10T12:04:04;4.32;;;2.47;;
49688;SDS011;70518;51.400;7.428;2023-06-10T12:06:54;4.88;;;2.65;;
49688;SDS011;70518;51.400;7.428;2023-06-10T12:09:25;5.75;;;3.00;;
49688;SDS011;70518;51.400;7.428;2023-06-10T12:12:04;3.53;;;2.60;;
49688;SDS011;70518;51.400;7.428;2023-06-10T12:17:23;6.78;;;3.17;;
49688;SDS011;70518;51.400;7.428;2023-06-10T12:19:59;4.05;;;2.78;;
49688;SDS011;70518;51.400;7.428;2023-06-10T12:22:25;4.75;;;2.90;;
49688;SDS011;70518;51.400;7.428;2023-06-10T12:25:02;7.85;;;2.75;;
49688;SDS011;70518;51.400;7.428;2023-06-10T12:27:29;8.93;;;3.17;;
49688;SDS011;70518;51.400;7.428;2023-06-10T12:29:56;5.88;;;2.83;;
49688;SDS011;70518;51.400;7.428;2023-06-10T12:32:49;6.70;;;2.85;;
49688;SDS011;70518;51.400;7.428;2023-06-10T12:35:16;4.57;;;2.72;;
49688;SDS011;70518;51.400;7.428;2023-06-10T12:37:43;2.97;;;2.28;;
49688;SDS011;70518;51.400;7.428;2023-06-10T12:40:25;4.05;;;2.25;;
49688;SDS011;70518;51.400;7.428;2023-06-10T12:43:01;4.75;;;3.10;;
49688;SDS011;70518;51.400;7.428;2023-06-10T12:45:27;5.80;;;2.90;;
49688;SDS011;70518;51.400;7.428;2023-06-10T12:48:03;4.25;;;2.88;;
49688;SDS011;70518;51.400;7.428;2023-06-10T12:50:31;3.63;;;3.10;;
49688;SDS011;70518;51.400;7.428;2023-06-10T12:52:57;5.10;;;3.00;;
49688;SDS011;70518;51.400;7.428;2023-06-10T12:55:22;3.83;;;2.58;;
49688;SDS011;70518;51.400;7.428;2023-06-10T12:57:48;4.03;;;2.78;;
49688;SDS011;70518;51.400;7.428;2023-06-10T13:00:14;4.18;;;2.83;;
49688;SDS011;70518;51.400;7.428;2023-06-10T13:02:40;3.97;;;2.85;;
49688;SDS011;70518;51.400;7.428;2023-06-10T13:05:05;6.28;;;2.72;;
49688;SDS011;70518;51.400;7.428;2023-06-10T13:07:31;3.55;;;2.50;;
49688;SDS011;70518;51.400;7.428;2023-06-10T13:09:56;4.88;;;3.15;;
49688;SDS011;70518;51.400;7.428;2023-06-10T13:12:22;5.60;;;2.80;;
49688;SDS011;70518;51.400;7.428;2023-06-10T13:14:47;6.03;;;2.50;;
49688;SDS011;70518;51.400;7.428;2023-06-10T13:17:13;3.60;;;2.20;;
49688;SDS011;70518;51.400;7.428;2023-06-10T13:19:38;5.10;;;2.50;;
49688;SDS011;70518;51.400;7.428;2023-06-10T13:22:04;6.82;;;2.90;;
49688;SDS011;70518;51.400;7.428;2023-06-10T13:24:29;4.30;;;2.90;;
49688;SDS011;70518;51.400;7.428;2023-06-10T13:26:54;4.38;;;2.60;;
49688;SDS011;70518;51.400;7.428;2023-06-10T13:29:21;3.20;;;2.90;;
49688;SDS011;70518;51.400;7.428;2023-06-10T13:31:46;4.32;;;2.35;;
49688;SDS011;70518;51.400;7.428;2023-06-10T13:34:11;4.22;;;2.47;;
49688;SDS011;70518;51.400;7.428;2023-06-10T13:36:37;5.10;;;2.58;;
49688;SDS011;70518;51.400;7.428;2023-06-10T13:39:02;4.45;;;2.70;;
49688;SDS011;70518;51.400;7.428;2023-06-10T13:41:28;6.00;;;2.70;;
49688;SDS011;70518;51.400;7.428;2023-06-10T13:43:53;7.32;;;3.10;;
49688;SDS011;70518;51.400;7.428;2023-06-10T13:46:19;3.22;;;2.58;;
49688;SDS011;70518;51.400;7.428;2023-06-10T13:48:46;4.18;;;2.72;;
49688;SDS011;70518;51.400;7.428;2023-06-10T13:51:11;4.45;;;3.05;;
49688;SDS011;70518;51.400;7.428;2023-06-10T13:53:37;3.75;;;2.75;;
49688;SDS011;70518;51.400;7.428;2023-06-10T13:56:02;6.78;;;2.95;;
49688;SDS011;70518;51.400;7.428;2023-06-10T13:58:28;3.42;;;2.55;;
49688;SDS011;70518;51.400;7.428;2023-06-10T14:00:53;4.65;;;2.63;;
49688;SDS011;70518;51.400;7.428;2023-06-10T14:03:18;2.85;;;2.58;;
49688;SDS011;70518;51.400;7.428;2023-06-10T14:05:43;2.85;;;2.22;;
49688;SDS011;70518;51.400;7.428;2023-06-10T14:08:09;3.40;;;3.10;;
49688;SDS011;70518;51.400;7.428;2023-06-10T14:10:34;3.42;;;2.90;;
49688;SDS011;70518;51.400;7.428;2023-06-10T14:12:59;10.50;;;2.85;;
49688;SDS011;70518;51.400;7.428;2023-06-10T14:15:25;3.17;;;2.88;;
49688;SDS011;70518;51.400;7.428;2023-06-10T14:17:50;4.40;;;2.80;;
49688;SDS011;70518;51.400;7.428;2023-06-10T14:20:16;3.63;;;2.38;;
49688;SDS011;70518;51.400;7.428;2023-06-10T14:22:41;3.95;;;3.00;;
49688;SDS011;70518;51.400;7.428;2023-06-10T14:25:07;3.85;;;2.65;;
49688;SDS011;70518;51.400;7.428;2023-06-10T14:27:32;6.13;;;2.65;;
49688;SDS011;70518;51.400;7.428;2023-06-10T14:29:57;3.78;;;2.97;;
49688;SDS011;70518;51.400;7.428;2023-06-10T14:32:23;3.00;;;2.70;;
49688;SDS011;70518;51.400;7.428;2023-06-10T14:34:48;4.72;;;2.60;;
49688;SDS011;70518;51.400;7.428;2023-06-10T14:37:13;3.00;;;2.72;;
49688;SDS011;70518;51.400;7.428;2023-06-10T14:39:39;4.45;;;3.17;;
49688;SDS011;70518;51.400;7.428;2023-06-10T14:42:04;4.45;;;2.90;;
49688;SDS011;70518;51.400;7.428;2023-06-10T14:44:30;4.45;;;2.65;;
49688;SDS011;70518;51.400;7.428;2023-06-10T14:46:56;4.07;;;2.92;;
49688;SDS011;70518;51.400;7.428;2023-06-10T14:49:21;3.72;;;2.97;;
49688;SDS011;70518;51.400;7.428;2023-06-10T14:51:46;3.85;;;2.45;;
49688;SDS011;70518;51.400;7.428;2023-06-10T14:54:14;3.13;;;2.60;;
49688;SDS011;70518;51.400;7.428;2023-06-10T14:56:40;4.05;;;2.50;;
49688;SDS011;70518;51.400;7.428;2023-06-10T14:59:05;3.50;;;2.15;;
49688;SDS011;70518;51.400;7.428;2023-06-10T15:01:30;2.47;;;2.03;;
49688;SDS011;70518;51.400;7.428;2023-06-10T15:03:55;3.08;;;2.40;;
49688;SDS011;70518;51.400;7.428;2023-06-10T15:06:21;7.32;;;2.33;;
49688;SDS011;70518;51.400;7.428;2023-06-10T15:08:47;3.33;;;2.55;;
49688;SDS011;70518;51.400;7.428;2023-06-10T15:11:16;4.93;;;2.50;;
49688;SDS011;70518;51.400;7.428;2023-06-10T15:13:42;3.38;;;2.90;;
49688;SDS011;70518;51.400;7.428;2023-06-10T15:16:07;3.38;;;2.45;;
49688;SDS011;70518;51.400;7.428;2023-06-10T15:18:33;2.95;;;2.50;;